createdAt,value
2022-12-01T00:03:51.354Z,60.04
2022-12-01T00:09:18.026Z,58.67
2022-12-01T00:14:23.141Z,61.39
2022-12-01T00:19:26.176Z,60.68
2022-12-01T00:24:30.260Z,60.63
2022-12-01T00:29:32.975Z,60.56
2022-12-01T00:34:37.856Z,58.66
2022-12-01T00:39:41.952Z,57.88
2022-12-01T00:44:44.684Z,55.65
2022-12-01T00:49:47.814Z,55.33
2022-12-01T00:54:52.129Z,54.49
2022-12-01T00:59:54.827Z,53.51
2022-12-01T01:04:57.516Z,53.48
2022-12-01T01:10:01.621Z,53.23
2022-12-01T01:15:04.863Z,53.40
2022-12-01T01:20:08.757Z,53.05
2022-12-01T01:25:12.784Z,53.72
2022-12-01T01:30:15.798Z,54.31
2022-12-01T01:35:18.663Z,54.87
2022-12-01T01:40:22.704Z,54.22
2022-12-01T01:45:27.200Z,53.82
2022-12-01T01:50:30.346Z,53.77
2022-12-01T01:55:35.662Z,53.48
2022-12-01T02:00:39.342Z,52.98
2022-12-01T02:05:44.719Z,52.74
2022-12-01T02:11:01.396Z,52.61
2022-12-01T02:16:09.935Z,52.62
2022-12-01T02:21:26.654Z,52.47
2022-12-01T02:26:40.528Z,52.35
2022-12-01T02:31:48.592Z,53.00
2022-12-01T02:36:55.361Z,52.88
2022-12-01T02:42:03.425Z,52.38
2022-12-01T02:47:11.348Z,52.49
2022-12-01T02:52:15.498Z,53.64
2022-12-01T02:57:18.222Z,53.96
2022-12-01T03:02:31.862Z,55.06
2022-12-01T03:07:46.436Z,54.64
2022-12-01T03:12:59.050Z,54.77
2022-12-01T03:18:09.693Z,54.24
2022-12-01T03:23:16.044Z,54.27
2022-12-01T03:28:29.665Z,54.31
2022-12-01T03:33:35.727Z,54.19
2022-12-01T03:38:38.721Z,54.73
2022-12-01T03:43:43.585Z,56.98
2022-12-01T03:48:47.666Z,57.51
2022-12-01T03:53:54.303Z,55.09
2022-12-01T03:58:58.496Z,54.64
2022-12-01T04:04:07.678Z,54.56
2022-12-01T04:09:10.385Z,54.46
2022-12-01T04:14:13.102Z,54.53
2022-12-01T04:19:17.483Z,54.92
2022-12-01T04:24:20.279Z,55.08
2022-12-01T04:29:23.317Z,54.77
2022-12-01T04:34:27.448Z,54.70
2022-12-01T04:39:30.219Z,55.07
2022-12-01T04:44:35.092Z,55.17
2022-12-01T04:49:39.534Z,56.47
2022-12-01T04:54:42.247Z,56.85
2022-12-01T04:59:44.972Z,58.96
2022-12-01T05:04:49.030Z,59.92
2022-12-01T05:09:51.986Z,62.78
2022-12-01T05:14:54.859Z,61.71
2022-12-01T05:20:16.230Z,59.62
2022-12-01T05:25:19.122Z,59.82
2022-12-01T05:30:25.652Z,58.13
2022-12-01T05:35:33.827Z,58.80
2022-12-01T05:40:36.888Z,59.01
2022-12-01T05:45:39.614Z,57.89
2022-12-01T05:50:43.988Z,56.85
2022-12-01T05:55:52.997Z,56.16
2022-12-01T06:00:55.737Z,55.88
2022-12-01T06:05:59.803Z,55.45
2022-12-01T06:11:02.524Z,55.04
2022-12-01T06:16:07.221Z,54.55
2022-12-01T06:21:11.280Z,53.82
2022-12-01T06:26:14.114Z,53.21
2022-12-01T06:31:17.005Z,53.17
2022-12-01T06:36:22.236Z,53.00
2022-12-01T06:41:24.915Z,53.07
2022-12-01T06:46:27.679Z,53.02
2022-12-01T06:51:34.167Z,53.24
2022-12-01T06:56:36.827Z,53.17
2022-12-01T07:01:39.797Z,52.71
2022-12-01T07:06:43.949Z,52.73
2022-12-01T07:11:47.066Z,52.45
2022-12-01T07:16:49.907Z,52.63
2022-12-01T07:21:54.396Z,52.96
2022-12-01T07:26:57.121Z,52.58
2022-12-01T07:31:59.894Z,52.60
2022-12-01T07:37:03.980Z,52.61
2022-12-01T07:42:06.889Z,51.56
2022-12-01T07:47:09.627Z,50.62
2022-12-01T07:52:13.775Z,50.79
2022-12-01T07:57:18.110Z,51.09
2022-12-01T08:02:20.957Z,51.25
2022-12-01T08:07:29.551Z,51.23
2022-12-01T08:12:32.622Z,51.05
2022-12-01T08:17:35.351Z,50.88
2022-12-01T08:22:39.517Z,50.36
2022-12-01T08:27:42.187Z,50.98
2022-12-01T08:32:44.884Z,50.77
2022-12-01T08:37:48.952Z,51.16
2022-12-01T08:42:53.204Z,51.20
2022-12-01T08:47:58.745Z,51.34
2022-12-01T08:53:02.833Z,51.30
2022-12-01T08:58:05.506Z,51.22
2022-12-01T09:03:08.223Z,51.42
2022-12-01T09:08:29.566Z,51.20
2022-12-01T09:13:32.753Z,51.30
2022-12-01T09:18:36.143Z,51.42
2022-12-01T09:23:40.700Z,51.28
2022-12-01T09:28:43.372Z,51.34
2022-12-01T09:33:46.084Z,51.30
2022-12-01T09:38:50.120Z,51.52
2022-12-01T09:43:57.683Z,51.43
2022-12-01T09:49:02.866Z,51.42
2022-12-01T09:54:08.039Z,51.60
2022-12-01T09:59:17.798Z,55.72
2022-12-01T10:04:22.345Z,54.33
2022-12-01T10:09:30.655Z,53.72
2022-12-01T10:14:35.264Z,53.27
2022-12-01T10:19:43.743Z,55.75
2022-12-01T10:24:55.247Z,59.72
2022-12-01T10:30:04.937Z,66.80
2022-12-01T10:35:09.443Z,72.96
2022-12-01T10:40:15.492Z,61.73
2022-12-01T10:45:21.791Z,56.94
2022-12-01T10:50:28.011Z,56.32
2022-12-01T10:55:32.826Z,56.65
2022-12-01T11:06:03.112Z,56.93
2022-12-01T11:11:26.575Z,57.84
2022-12-01T11:16:36.075Z,59.19
2022-12-01T11:21:47.144Z,59.45
2022-12-01T11:26:51.211Z,60.73
2022-12-01T11:31:54.035Z,62.07
2022-12-01T11:36:59.977Z,65.68
2022-12-01T11:42:04.977Z,67.04
2022-12-01T11:47:23.154Z,70.52
2022-12-01T11:52:30.626Z,75.44
2022-12-01T11:57:35.250Z,83.06
2022-12-01T12:02:43.788Z,87.79
2022-12-01T12:07:53.313Z,94.99
2022-12-01T12:13:07.000Z,100.00
2022-12-01T12:18:40.988Z,100.00
2022-12-01T12:23:59.122Z,100.00
2022-12-01T12:29:27.206Z,100.00
2022-12-01T12:34:40.024Z,100.00
2022-12-01T12:40:05.654Z,100.00
2022-12-01T12:45:17.940Z,100.00
2022-12-01T12:50:28.642Z,100.00
2022-12-01T12:55:34.584Z,100.00
2022-12-01T13:00:41.787Z,100.00
2022-12-01T13:05:49.802Z,100.00
2022-12-01T13:10:57.970Z,100.00
2022-12-01T13:16:04.294Z,100.00
2022-12-01T13:21:07.272Z,100.00
2022-12-01T13:26:10.936Z,100.00
2022-12-01T13:31:16.507Z,100.00
2022-12-01T13:41:44.635Z,100.00
2022-12-01T13:46:57.333Z,100.00
2022-12-01T13:52:28.360Z,100.00
2022-12-01T13:57:33.751Z,100.00
2022-12-01T14:02:38.022Z,100.00
2022-12-01T14:07:41.251Z,100.00
2022-12-01T14:12:45.547Z,100.00
2022-12-01T14:18:00.415Z,100.00
2022-12-01T14:23:06.104Z,100.00
2022-12-01T14:28:15.120Z,100.00
2022-12-01T14:33:51.002Z,100.00
2022-12-01T14:38:55.785Z,100.00
2022-12-01T14:44:06.565Z,100.00
2022-12-01T14:49:15.355Z,100.00
2022-12-01T14:54:21.732Z,100.00
2022-12-01T14:59:26.226Z,100.00
2022-12-01T15:04:30.892Z,100.00
2022-12-01T15:09:34.994Z,100.00
2022-12-01T15:14:39.580Z,100.00
2022-12-01T15:19:43.982Z,100.00
2022-12-01T15:24:47.115Z,100.00
2022-12-01T15:29:50.271Z,100.00
2022-12-01T15:34:55.628Z,100.00
2022-12-01T15:45:25.195Z,100.00
2022-12-01T15:50:31.241Z,100.00
2022-12-01T15:55:36.003Z,100.00
2022-12-01T16:00:39.043Z,100.00
2022-12-01T16:05:45.295Z,100.00
2022-12-01T16:11:12.275Z,100.00
2022-12-01T16:16:39.558Z,100.00
2022-12-01T16:21:46.254Z,100.00
2022-12-01T16:26:50.560Z,100.00
2022-12-01T16:37:18.728Z,100.00
2022-12-01T16:42:22.248Z,100.00
2022-12-01T16:47:26.195Z,100.00
2022-12-01T16:52:46.185Z,100.00
2022-12-01T16:57:49.168Z,100.00
2022-12-01T17:02:52.677Z,100.00
2022-12-01T17:07:57.136Z,100.00
2022-12-01T17:13:00.140Z,100.00
2022-12-01T17:18:02.849Z,100.00
2022-12-01T17:23:07.172Z,100.00
2022-12-01T17:28:09.924Z,100.00
2022-12-01T17:33:12.837Z,100.00
2022-12-01T17:38:16.875Z,100.00
2022-12-01T17:43:20.846Z,100.00
2022-12-01T17:48:23.612Z,100.00
2022-12-01T17:53:27.697Z,100.00
2022-12-01T17:58:31.332Z,100.00
2022-12-01T18:03:34.060Z,100.00
2022-12-01T18:08:38.570Z,100.00
2022-12-01T18:13:43.699Z,100.00
2022-12-01T18:18:46.468Z,100.00
2022-12-01T18:23:51.174Z,100.00
2022-12-01T18:28:58.225Z,100.00
2022-12-01T18:34:02.973Z,100.00
2022-12-01T18:39:08.581Z,100.00
2022-12-01T18:44:11.654Z,100.00
2022-12-01T18:49:14.383Z,100.00
2022-12-01T18:54:18.513Z,100.00
2022-12-01T18:59:22.799Z,100.00
2022-12-01T19:04:25.540Z,100.00
2022-12-01T19:09:29.607Z,100.00
2022-12-01T19:14:32.854Z,100.00
2022-12-01T19:19:37.639Z,100.00
2022-12-01T19:24:44.836Z,100.00
2022-12-01T19:29:52.268Z,100.00
2022-12-01T19:34:55.554Z,100.00
2022-12-01T19:39:59.629Z,100.00
2022-12-01T19:45:02.476Z,100.00
2022-12-01T19:50:06.072Z,100.00
2022-12-01T19:55:10.996Z,100.00
2022-12-01T20:00:14.592Z,100.00
2022-12-01T20:05:17.442Z,100.00
2022-12-01T20:10:21.559Z,100.00
2022-12-01T20:15:24.277Z,100.00
2022-12-01T20:20:27.394Z,100.00
2022-12-01T20:25:31.487Z,100.00
2022-12-01T20:30:34.232Z,100.00
2022-12-01T20:35:36.992Z,100.00
2022-12-01T20:40:41.087Z,100.00
2022-12-01T20:45:43.863Z,100.00
2022-12-01T20:50:46.633Z,100.00
2022-12-01T20:55:50.772Z,100.00
2022-12-01T21:00:54.187Z,100.00
2022-12-01T21:05:59.910Z,100.00
2022-12-01T21:11:07.412Z,100.00
2022-12-01T21:16:21.210Z,100.00
2022-12-01T21:21:27.429Z,100.00
2022-12-01T21:26:31.482Z,100.00
2022-12-01T21:31:34.416Z,100.00
2022-12-01T21:36:37.244Z,100.00
2022-12-01T21:41:41.359Z,100.00
2022-12-01T21:46:44.407Z,100.00
2022-12-01T21:51:48.440Z,100.00
2022-12-01T21:56:54.499Z,100.00
2022-12-01T22:01:57.323Z,100.00
2022-12-01T22:07:00.071Z,100.00
2022-12-01T22:12:23.520Z,100.00
2022-12-01T22:17:26.268Z,100.00
2022-12-01T22:22:29.906Z,100.00
2022-12-01T22:27:36.585Z,100.00
2022-12-01T22:32:51.852Z,100.00
2022-12-01T22:37:56.621Z,100.00
2022-12-01T22:43:01.537Z,100.00
2022-12-01T22:48:05.276Z,100.00
2022-12-01T22:53:14.027Z,100.00
2022-12-01T22:58:23.663Z,100.00
2022-12-01T23:03:27.303Z,100.00
2022-12-01T23:08:30.023Z,100.00
2022-12-01T23:13:35.376Z,100.00
2022-12-01T23:18:38.090Z,100.00
2022-12-01T23:23:40.860Z,100.00
2022-12-01T23:28:44.988Z,100.00
2022-12-01T23:33:47.729Z,100.00
2022-12-01T23:38:52.323Z,100.00
2022-12-01T23:43:57.140Z,100.00
2022-12-01T23:49:02.029Z,100.00
2022-12-01T23:54:07.881Z,100.00
2022-12-01T23:59:13.768Z,100.00
